sensor_id;sensor_type;location;lat;lon;timestamp;P1;durP1;ratioP1;P2;durP2;ratioP2
5054;SDS011;13829;48.990;8.346;2022-10-30T00:01:40;18.47;;;9.27;;
5054;SDS011;13829;48.990;8.346;2022-10-30T00:04:08;16.17;;;8.73;;
5054;SDS011;13829;48.990;8.346;2022-10-30T00:06:35;15.73;;;9.23;;
5054;SDS011;13829;48.990;8.346;2022-10-30T00:09:02;15.13;;;8.50;;
5054;SDS011;13829;48.990;8.346;2022-10-30T00:11:29;20.90;;;8.63;;
5054;SDS011;13829;48.990;8.346;2022-10-30T00:13:57;15.50;;;8.70;;
5054;SDS011;13829;48.990;8.346;2022-10-30T00:16:24;20.80;;;9.40;;
5054;SDS011;13829;48.990;8.346;2022-10-30T00:18:51;13.80;;;8.47;;
5054;SDS011;13829;48.990;8.346;2022-10-30T00:21:18;16.07;;;8.83;;
5054;SDS011;13829;48.990;8.346;2022-10-30T00:23:46;16.60;;;8.37;;
5054;SDS011;13829;48.990;8.346;2022-10-30T00:26:14;12.23;;;8.67;;
5054;SDS011;13829;48.990;8.346;2022-10-30T00:28:42;16.83;;;8.73;;
5054;SDS011;13829;48.990;8.346;2022-10-30T00:31:10;13.73;;;8.60;;
5054;SDS011;13829;48.990;8.346;2022-10-30T00:33:37;15.63;;;8.67;;
5054;SDS011;13829;48.990;8.346;2022-10-30T00:36:04;15.53;;;8.13;;
5054;SDS011;13829;48.990;8.346;2022-10-30T00:38:32;16.73;;;8.33;;
5054;SDS011;13829;48.990;8.346;2022-10-30T00:40:59;13.80;;;8.37;;
5054;SDS011;13829;48.990;8.346;2022-10-30T00:43:27;12.77;;;8.43;;
5054;SDS011;13829;48.990;8.346;2022-10-30T00:46:02;17.73;;;9.20;;
5054;SDS011;13829;48.990;8.346;2022-10-30T00:48:40;15.57;;;10.23;;
5054;SDS011;13829;48.990;8.346;2022-10-30T00:51:10;21.03;;;10.93;;
5054;SDS011;13829;48.990;8.346;2022-10-30T00:53:39;15.10;;;9.53;;
5054;SDS011;13829;48.990;8.346;2022-10-30T00:56:08;15.90;;;8.60;;
5054;SDS011;13829;48.990;8.346;2022-10-30T00:58:40;20.83;;;9.33;;
5054;SDS011;13829;48.990;8.346;2022-10-30T01:01:16;16.37;;;9.33;;
5054;SDS011;13829;48.990;8.346;2022-10-30T01:03:51;22.20;;;10.03;;
5054;SDS011;13829;48.990;8.346;2022-10-30T01:06:25;19.37;;;9.57;;
5054;SDS011;13829;48.990;8.346;2022-10-30T01:08:54;18.67;;;9.43;;
5054;SDS011;13829;48.990;8.346;2022-10-30T01:11:21;17.20;;;8.97;;
5054;SDS011;13829;48.990;8.346;2022-10-30T01:13:48;19.70;;;9.20;;
5054;SDS011;13829;48.990;8.346;2022-10-30T01:16:25;14.60;;;8.30;;
5054;SDS011;13829;48.990;8.346;2022-10-30T01:19:16;14.07;;;7.70;;
5054;SDS011;13829;48.990;8.346;2022-10-30T01:21:55;15.93;;;7.93;;
5054;SDS011;13829;48.990;8.346;2022-10-30T01:24:43;17.80;;;8.70;;
5054;SDS011;13829;48.990;8.346;2022-10-30T01:27:26;11.97;;;7.67;;
5054;SDS011;13829;48.990;8.346;2022-10-30T01:30:10;12.73;;;7.33;;
5054;SDS011;13829;48.990;8.346;2022-10-30T01:32:56;14.77;;;8.73;;
5054;SDS011;13829;48.990;8.346;2022-10-30T01:35:43;15.27;;;7.97;;
5054;SDS011;13829;48.990;8.346;2022-10-30T01:38:18;11.87;;;7.93;;
5054;SDS011;13829;48.990;8.346;2022-10-30T01:40:51;12.17;;;7.70;;
5054;SDS011;13829;48.990;8.346;2022-10-30T01:43:18;10.47;;;7.80;;
5054;SDS011;13829;48.990;8.346;2022-10-30T01:45:48;14.50;;;7.93;;
5054;SDS011;13829;48.990;8.346;2022-10-30T01:48:54;13.43;;;8.60;;
5054;SDS011;13829;48.990;8.346;2022-10-30T01:51:53;16.53;;;7.90;;
5054;SDS011;13829;48.990;8.346;2022-10-30T01:54:32;14.93;;;8.40;;
5054;SDS011;13829;48.990;8.346;2022-10-30T01:57:11;14.47;;;8.03;;
5054;SDS011;13829;48.990;8.346;2022-10-30T01:59:53;11.83;;;7.47;;
5054;SDS011;13829;48.990;8.346;2022-10-30T02:02:26;13.90;;;7.97;;
5054;SDS011;13829;48.990;8.346;2022-10-30T02:04:55;11.23;;;7.30;;
5054;SDS011;13829;48.990;8.346;2022-10-30T02:07:23;14.50;;;7.93;;
5054;SDS011;13829;48.990;8.346;2022-10-30T02:09:51;13.27;;;7.30;;
5054;SDS011;13829;48.990;8.346;2022-10-30T02:12:19;16.50;;;8.27;;
5054;SDS011;13829;48.990;8.346;2022-10-30T02:14:49;15.27;;;7.60;;
5054;SDS011;13829;48.990;8.346;2022-10-30T02:17:21;12.50;;;7.33;;
5054;SDS011;13829;48.990;8.346;2022-10-30T02:19:48;15.17;;;7.70;;
5054;SDS011;13829;48.990;8.346;2022-10-30T02:22:17;14.63;;;7.60;;
5054;SDS011;13829;48.990;8.346;2022-10-30T02:24:44;13.97;;;7.63;;
5054;SDS011;13829;48.990;8.346;2022-10-30T02:27:11;11.67;;;6.93;;
5054;SDS011;13829;48.990;8.346;2022-10-30T02:29:38;11.87;;;6.60;;
5054;SDS011;13829;48.990;8.346;2022-10-30T02:32:05;12.30;;;7.10;;
5054;SDS011;13829;48.990;8.346;2022-10-30T02:34:32;11.30;;;7.83;;
5054;SDS011;13829;48.990;8.346;2022-10-30T02:36:59;10.33;;;6.97;;
5054;SDS011;13829;48.990;8.346;2022-10-30T02:39:27;11.73;;;6.97;;
5054;SDS011;13829;48.990;8.346;2022-10-30T02:41:54;18.90;;;7.30;;
5054;SDS011;13829;48.990;8.346;2022-10-30T02:44:21;13.93;;;7.43;;
5054;SDS011;13829;48.990;8.346;2022-10-30T02:46:48;14.67;;;8.07;;
5054;SDS011;13829;48.990;8.346;2022-10-30T02:49:14;15.23;;;7.47;;
5054;SDS011;13829;48.990;8.346;2022-10-30T02:51:41;15.77;;;6.87;;
5054;SDS011;13829;48.990;8.346;2022-10-30T02:54:08;13.37;;;6.77;;
5054;SDS011;13829;48.990;8.346;2022-10-30T02:56:38;14.03;;;7.27;;
5054;SDS011;13829;48.990;8.346;2022-10-30T02:59:06;14.57;;;7.07;;
5054;SDS011;13829;48.990;8.346;2022-10-30T03:01:33;13.40;;;6.63;;
5054;SDS011;13829;48.990;8.346;2022-10-30T03:03:59;11.63;;;6.97;;
5054;SDS011;13829;48.990;8.346;2022-10-30T03:06:26;12.30;;;6.40;;
5054;SDS011;13829;48.990;8.346;2022-10-30T03:08:53;12.57;;;6.50;;
5054;SDS011;13829;48.990;8.346;2022-10-30T03:11:20;13.60;;;6.50;;
5054;SDS011;13829;48.990;8.346;2022-10-30T03:13:48;10.23;;;6.07;;
5054;SDS011;13829;48.990;8.346;2022-10-30T03:16:16;15.70;;;7.67;;
5054;SDS011;13829;48.990;8.346;2022-10-30T03:18:46;10.33;;;6.60;;
5054;SDS011;13829;48.990;8.346;2022-10-30T03:21:14;10.73;;;6.63;;
5054;SDS011;13829;48.990;8.346;2022-10-30T03:23:44;13.93;;;7.03;;
5054;SDS011;13829;48.990;8.346;2022-10-30T03:26:11;13.87;;;6.67;;
5054;SDS011;13829;48.990;8.346;2022-10-30T03:28:38;13.33;;;6.83;;
5054;SDS011;13829;48.990;8.346;2022-10-30T03:31:07;12.43;;;6.77;;
5054;SDS011;13829;48.990;8.346;2022-10-30T03:33:36;15.07;;;7.13;;
5054;SDS011;13829;48.990;8.346;2022-10-30T03:36:04;11.03;;;6.53;;
5054;SDS011;13829;48.990;8.346;2022-10-30T03:38:32;9.20;;;6.20;;
5054;SDS011;13829;48.990;8.346;2022-10-30T03:41:00;11.23;;;6.30;;
5054;SDS011;13829;48.990;8.346;2022-10-30T03:43:27;11.70;;;6.50;;
5054;SDS011;13829;48.990;8.346;2022-10-30T03:45:54;10.13;;;6.50;;
5054;SDS011;13829;48.990;8.346;2022-10-30T03:48:24;14.67;;;6.20;;
5054;SDS011;13829;48.990;8.346;2022-10-30T03:50:53;10.97;;;6.30;;
5054;SDS011;13829;48.990;8.346;2022-10-30T03:53:22;11.67;;;6.47;;
5054;SDS011;13829;48.990;8.346;2022-10-30T03:55:50;12.93;;;6.33;;
5054;SDS011;13829;48.990;8.346;2022-10-30T03:58:18;7.90;;;5.43;;
5054;SDS011;13829;48.990;8.346;2022-10-30T04:00:44;11.17;;;6.10;;
5054;SDS011;13829;48.990;8.346;2022-10-30T04:03:11;10.80;;;6.27;;
5054;SDS011;13829;48.990;8.346;2022-10-30T04:05:40;11.80;;;6.20;;
5054;SDS011;13829;48.990;8.346;2022-10-30T04:08:08;13.17;;;6.13;;
5054;SDS011;13829;48.990;8.346;2022-10-30T04:10:40;8.83;;;5.37;;
5054;SDS011;13829;48.990;8.346;2022-10-30T04:13:09;12.90;;;6.47;;
5054;SDS011;13829;48.990;8.346;2022-10-30T04:15:37;10.13;;;6.13;;
5054;SDS011;13829;48.990;8.346;2022-10-30T04:18:05;14.33;;;6.30;;
5054;SDS011;13829;48.990;8.346;2022-10-30T04:20:34;9.27;;;6.00;;
5054;SDS011;13829;48.990;8.346;2022-10-30T04:23:03;13.13;;;6.07;;
5054;SDS011;13829;48.990;8.346;2022-10-30T04:25:32;8.57;;;5.37;;
5054;SDS011;13829;48.990;8.346;2022-10-30T04:28:00;16.27;;;6.13;;
5054;SDS011;13829;48.990;8.346;2022-10-30T04:30:28;10.60;;;5.70;;
5054;SDS011;13829;48.990;8.346;2022-10-30T04:32:59;10.97;;;5.50;;
5054;SDS011;13829;48.990;8.346;2022-10-30T04:35:29;11.50;;;5.90;;
5054;SDS011;13829;48.990;8.346;2022-10-30T04:37:58;9.90;;;5.70;;
5054;SDS011;13829;48.990;8.346;2022-10-30T04:40:29;11.23;;;6.20;;
5054;SDS011;13829;48.990;8.346;2022-10-30T04:42:59;14.37;;;5.40;;
5054;SDS011;13829;48.990;8.346;2022-10-30T04:45:27;7.40;;;5.57;;
5054;SDS011;13829;48.990;8.346;2022-10-30T04:47:58;10.93;;;5.30;;
5054;SDS011;13829;48.990;8.346;2022-10-30T04:50:27;10.43;;;5.37;;
5054;SDS011;13829;48.990;8.346;2022-10-30T04:52:58;8.23;;;5.00;;
5054;SDS011;13829;48.990;8.346;2022-10-30T04:55:26;11.77;;;5.53;;
5054;SDS011;13829;48.990;8.346;2022-10-30T04:57:55;12.10;;;6.23;;
5054;SDS011;13829;48.990;8.346;2022-10-30T05:00:23;7.53;;;5.93;;
5054;SDS011;13829;48.990;8.346;2022-10-30T05:02:51;10.20;;;5.80;;
5054;SDS011;13829;48.990;8.346;2022-10-30T05:05:18;9.20;;;5.40;;
5054;SDS011;13829;48.990;8.346;2022-10-30T05:07:46;12.40;;;6.07;;
5054;SDS011;13829;48.990;8.346;2022-10-30T05:10:13;12.83;;;5.83;;
5054;SDS011;13829;48.990;8.346;2022-10-30T05:12:43;17.60;;;5.47;;
5054;SDS011;13829;48.990;8.346;2022-10-30T05:15:11;12.63;;;6.03;;
5054;SDS011;13829;48.990;8.346;2022-10-30T05:17:39;12.70;;;5.40;;
5054;SDS011;13829;48.990;8.346;2022-10-30T05:20:07;12.83;;;5.13;;
5054;SDS011;13829;48.990;8.346;2022-10-30T05:22:35;15.90;;;5.90;;
5054;SDS011;13829;48.990;8.346;2022-10-30T05:25:02;11.60;;;5.83;;
5054;SDS011;13829;48.990;8.346;2022-10-30T05:27:29;13.00;;;5.60;;
5054;SDS011;13829;48.990;8.346;2022-10-30T05:29:58;12.70;;;5.37;;
5054;SDS011;13829;48.990;8.346;2022-10-30T05:32:25;12.20;;;6.10;;
5054;SDS011;13829;48.990;8.346;2022-10-30T05:34:52;8.90;;;4.87;;
5054;SDS011;13829;48.990;8.346;2022-10-30T05:37:19;10.20;;;4.97;;
5054;SDS011;13829;48.990;8.346;2022-10-30T05:39:46;6.73;;;4.80;;
5054;SDS011;13829;48.990;8.346;2022-10-30T05:42:12;7.83;;;5.63;;
5054;SDS011;13829;48.990;8.346;2022-10-30T05:44:39;9.70;;;5.27;;
5054;SDS011;13829;48.990;8.346;2022-10-30T05:47:09;13.77;;;5.63;;
5054;SDS011;13829;48.990;8.346;2022-10-30T05:49:37;9.83;;;5.60;;
5054;SDS011;13829;48.990;8.346;2022-10-30T05:52:04;9.20;;;5.00;;
5054;SDS011;13829;48.990;8.346;2022-10-30T05:54:31;9.33;;;5.33;;
5054;SDS011;13829;48.990;8.346;2022-10-30T05:56:58;11.57;;;4.87;;
5054;SDS011;13829;48.990;8.346;2022-10-30T05:59:24;15.70;;;8.13;;
5054;SDS011;13829;48.990;8.346;2022-10-30T06:01:51;15.40;;;7.33;;
5054;SDS011;13829;48.990;8.346;2022-10-30T06:04:21;10.80;;;6.53;;
5054;SDS011;13829;48.990;8.346;2022-10-30T06:06:48;12.47;;;6.20;;
5054;SDS011;13829;48.990;8.346;2022-10-30T06:09:15;7.43;;;6.07;;
5054;SDS011;13829;48.990;8.346;2022-10-30T06:11:42;10.73;;;5.93;;
5054;SDS011;13829;48.990;8.346;2022-10-30T06:14:08;13.50;;;6.40;;
5054;SDS011;13829;48.990;8.346;2022-10-30T06:16:35;11.40;;;5.77;;
5054;SDS011;13829;48.990;8.346;2022-10-30T06:19:02;12.13;;;5.90;;
5054;SDS011;13829;48.990;8.346;2022-10-30T06:21:30;11.93;;;6.10;;
5054;SDS011;13829;48.990;8.346;2022-10-30T06:23:57;13.63;;;6.10;;
5054;SDS011;13829;48.990;8.346;2022-10-30T06:26:24;10.63;;;5.33;;
5054;SDS011;13829;48.990;8.346;2022-10-30T06:28:51;13.33;;;5.23;;
5054;SDS011;13829;48.990;8.346;2022-10-30T06:31:18;15.77;;;6.07;;
5054;SDS011;13829;48.990;8.346;2022-10-30T06:33:45;10.73;;;5.53;;
5054;SDS011;13829;48.990;8.346;2022-10-30T06:36:12;8.47;;;5.37;;
5054;SDS011;13829;48.990;8.346;2022-10-30T06:38:40;12.27;;;5.83;;
5054;SDS011;13829;48.990;8.346;2022-10-30T06:41:07;12.47;;;5.00;;
5054;SDS011;13829;48.990;8.346;2022-10-30T06:43:34;13.33;;;5.60;;
5054;SDS011;13829;48.990;8.346;2022-10-30T06:46:01;9.57;;;4.90;;
5054;SDS011;13829;48.990;8.346;2022-10-30T06:48:28;12.77;;;5.27;;
5054;SDS011;13829;48.990;8.346;2022-10-30T06:50:55;11.27;;;5.47;;
5054;SDS011;13829;48.990;8.346;2022-10-30T06:53:25;12.03;;;5.60;;
5054;SDS011;13829;48.990;8.346;2022-10-30T06:55:54;10.67;;;5.53;;
5054;SDS011;13829;48.990;8.346;2022-10-30T06:58:22;8.80;;;5.33;;
5054;SDS011;13829;48.990;8.346;2022-10-30T07:00:49;15.30;;;5.60;;
5054;SDS011;13829;48.990;8.346;2022-10-30T07:03:16;8.37;;;5.07;;
5054;SDS011;13829;48.990;8.346;2022-10-30T07:05:44;13.80;;;5.80;;
5054;SDS011;13829;48.990;8.346;2022-10-30T07:08:11;15.63;;;5.73;;
5054;SDS011;13829;48.990;8.346;2022-10-30T07:10:38;11.43;;;4.80;;
5054;SDS011;13829;48.990;8.346;2022-10-30T07:13:07;7.73;;;5.03;;
5054;SDS011;13829;48.990;8.346;2022-10-30T07:15:34;8.63;;;4.80;;
5054;SDS011;13829;48.990;8.346;2022-10-30T07:18:01;16.03;;;5.90;;
5054;SDS011;13829;48.990;8.346;2022-10-30T07:20:29;10.93;;;5.10;;
5054;SDS011;13829;48.990;8.346;2022-10-30T07:22:58;6.70;;;4.43;;
5054;SDS011;13829;48.990;8.346;2022-10-30T07:25:26;13.30;;;7.10;;
5054;SDS011;13829;48.990;8.346;2022-10-30T07:27:53;11.50;;;5.73;;
5054;SDS011;13829;48.990;8.346;2022-10-30T07:30:24;8.00;;;5.13;;
5054;SDS011;13829;48.990;8.346;2022-10-30T07:32:56;10.43;;;5.30;;
5054;SDS011;13829;48.990;8.346;2022-10-30T07:35:24;9.43;;;5.17;;
5054;SDS011;13829;48.990;8.346;2022-10-30T07:37:52;9.97;;;5.30;;
5054;SDS011;13829;48.990;8.346;2022-10-30T07:40:20;11.13;;;5.80;;
5054;SDS011;13829;48.990;8.346;2022-10-30T07:42:47;11.40;;;5.83;;
5054;SDS011;13829;48.990;8.346;2022-10-30T07:45:14;12.60;;;5.70;;
5054;SDS011;13829;48.990;8.346;2022-10-30T07:47:43;8.80;;;5.07;;
5054;SDS011;13829;48.990;8.346;2022-10-30T07:50:10;9.40;;;5.23;;
5054;SDS011;13829;48.990;8.346;2022-10-30T07:52:37;11.00;;;5.87;;
5054;SDS011;13829;48.990;8.346;2022-10-30T07:55:04;13.07;;;5.70;;
5054;SDS011;13829;48.990;8.346;2022-10-30T07:57:34;9.83;;;5.53;;
5054;SDS011;13829;48.990;8.346;2022-10-30T08:00:03;12.43;;;5.23;;
5054;SDS011;13829;48.990;8.346;2022-10-30T08:02:31;10.30;;;4.63;;
5054;SDS011;13829;48.990;8.346;2022-10-30T08:05:00;7.27;;;5.23;;
5054;SDS011;13829;48.990;8.346;2022-10-30T08:07:29;14.60;;;5.93;;
5054;SDS011;13829;48.990;8.346;2022-10-30T08:09:57;12.00;;;6.13;;
5054;SDS011;13829;48.990;8.346;2022-10-30T08:12:24;11.60;;;5.87;;
5054;SDS011;13829;48.990;8.346;2022-10-30T08:14:52;8.80;;;6.00;;
5054;SDS011;13829;48.990;8.346;2022-10-30T08:17:20;9.13;;;5.63;;
5054;SDS011;13829;48.990;8.346;2022-10-30T08:19:47;10.60;;;6.10;;
5054;SDS011;13829;48.990;8.346;2022-10-30T08:22:15;9.93;;;5.70;;
5054;SDS011;13829;48.990;8.346;2022-10-30T08:24:42;12.43;;;5.90;;
5054;SDS011;13829;48.990;8.346;2022-10-30T08:27:09;12.00;;;6.07;;
5054;SDS011;13829;48.990;8.346;2022-10-30T08:29:36;9.10;;;6.17;;
5054;SDS011;13829;48.990;8.346;2022-10-30T08:32:03;10.07;;;5.30;;
5054;SDS011;13829;48.990;8.346;2022-10-30T08:34:31;13.37;;;7.00;;
5054;SDS011;13829;48.990;8.346;2022-10-30T08:36:59;13.03;;;6.20;;
5054;SDS011;13829;48.990;8.346;2022-10-30T08:39:27;12.27;;;5.90;;
5054;SDS011;13829;48.990;8.346;2022-10-30T08:41:55;11.67;;;5.57;;
5054;SDS011;13829;48.990;8.346;2022-10-30T08:44:24;11.07;;;5.63;;
5054;SDS011;13829;48.990;8.346;2022-10-30T08:46:51;12.07;;;6.33;;
5054;SDS011;13829;48.990;8.346;2022-10-30T08:49:18;11.57;;;5.00;;
5054;SDS011;13829;48.990;8.346;2022-10-30T08:51:45;11.03;;;5.93;;
5054;SDS011;13829;48.990;8.346;2022-10-30T08:54:12;13.23;;;5.53;;
5054;SDS011;13829;48.990;8.346;2022-10-30T08:56:40;13.30;;;5.60;;
5054;SDS011;13829;48.990;8.346;2022-10-30T08:59:07;10.87;;;4.90;;
5054;SDS011;13829;48.990;8.346;2022-10-30T09:01:34;12.70;;;6.00;;
5054;SDS011;13829;48.990;8.346;2022-10-30T09:04:01;12.80;;;5.85;;
5054;SDS011;13829;48.990;8.346;2022-10-30T09:06:28;8.97;;;4.70;;
5054;SDS011;13829;48.990;8.346;2022-10-30T09:08:56;10.37;;;5.23;;
5054;SDS011;13829;48.990;8.346;2022-10-30T09:11:23;14.73;;;5.82;;
5054;SDS011;13829;48.990;8.346;2022-10-30T09:13:52;13.37;;;5.63;;
5054;SDS011;13829;48.990;8.346;2022-10-30T09:16:18;10.10;;;5.00;;
5054;SDS011;13829;48.990;8.346;2022-10-30T09:18:45;9.82;;;5.20;;
5054;SDS011;13829;48.990;8.346;2022-10-30T09:21:12;8.50;;;4.83;;
5054;SDS011;13829;48.990;8.346;2022-10-30T09:23:40;14.18;;;6.38;;
5054;SDS011;13829;48.990;8.346;2022-10-30T09:26:08;8.35;;;5.10;;
5054;SDS011;13829;48.990;8.346;2022-10-30T09:28:36;12.23;;;6.05;;
5054;SDS011;13829;48.990;8.346;2022-10-30T09:31:04;8.30;;;4.70;;
5054;SDS011;13829;48.990;8.346;2022-10-30T09:33:31;10.23;;;4.63;;
5054;SDS011;13829;48.990;8.346;2022-10-30T09:35:58;12.07;;;5.47;;
5054;SDS011;13829;48.990;8.346;2022-10-30T09:38:26;9.18;;;5.20;;
5054;SDS011;13829;48.990;8.346;2022-10-30T09:40:59;7.80;;;4.57;;
5054;SDS011;13829;48.990;8.346;2022-10-30T09:43:53;15.55;;;6.00;;
5054;SDS011;13829;48.990;8.346;2022-10-30T09:46:44;15.05;;;5.38;;
5054;SDS011;13829;48.990;8.346;2022-10-30T09:49:47;10.73;;;5.10;;
5054;SDS011;13829;48.990;8.346;2022-10-30T09:52:33;13.05;;;5.38;;
5054;SDS011;13829;48.990;8.346;2022-10-30T09:55:11;8.50;;;4.82;;
5054;SDS011;13829;48.990;8.346;2022-10-30T09:57:56;12.32;;;5.25;;
5054;SDS011;13829;48.990;8.346;2022-10-30T10:00:39;10.52;;;4.75;;
5054;SDS011;13829;48.990;8.346;2022-10-30T10:03:19;12.60;;;5.13;;
5054;SDS011;13829;48.990;8.346;2022-10-30T10:06:03;14.55;;;4.90;;
5054;SDS011;13829;48.990;8.346;2022-10-30T10:08:38;9.85;;;4.38;;
5054;SDS011;13829;48.990;8.346;2022-10-30T10:11:12;11.43;;;5.50;;
5054;SDS011;13829;48.990;8.346;2022-10-30T10:13:45;9.07;;;4.38;;
5054;SDS011;13829;48.990;8.346;2022-10-30T10:16:17;12.45;;;5.22;;
5054;SDS011;13829;48.990;8.346;2022-10-30T10:18:50;9.13;;;4.95;;
5054;SDS011;13829;48.990;8.346;2022-10-30T10:21:26;8.05;;;4.70;;
5054;SDS011;13829;48.990;8.346;2022-10-30T10:23:55;12.07;;;4.38;;
5054;SDS011;13829;48.990;8.346;2022-10-30T10:26:28;11.75;;;5.00;;
5054;SDS011;13829;48.990;8.346;2022-10-30T10:32:10;9.13;;;4.55;;
5054;SDS011;13829;48.990;8.346;2022-10-30T10:35:14;13.32;;;5.88;;
5054;SDS011;13829;48.990;8.346;2022-10-30T10:38:04;8.63;;;4.97;;
5054;SDS011;13829;48.990;8.346;2022-10-30T10:40:46;9.52;;;5.57;;
5054;SDS011;13829;48.990;8.346;2022-10-30T10:43:27;14.93;;;5.18;;
5054;SDS011;13829;48.990;8.346;2022-10-30T10:46:16;11.13;;;5.13;;
5054;SDS011;13829;48.990;8.346;2022-10-30T10:49:12;10.48;;;4.95;;
5054;SDS011;13829;48.990;8.346;2022-10-30T10:51:58;9.35;;;4.90;;
5054;SDS011;13829;48.990;8.346;2022-10-30T10:54:30;9.75;;;5.22;;
5054;SDS011;13829;48.990;8.346;2022-10-30T10:57:05;9.45;;;4.80;;
5054;SDS011;13829;48.990;8.346;2022-10-30T10:59:42;12.13;;;5.03;;
5054;SDS011;13829;48.990;8.346;2022-10-30T11:02:28;8.13;;;4.45;;
5054;SDS011;13829;48.990;8.346;2022-10-30T11:05:05;12.23;;;5.50;;
5054;SDS011;13829;48.990;8.346;2022-10-30T11:07:44;12.85;;;5.78;;
5054;SDS011;13829;48.990;8.346;2022-10-30T11:10:15;10.90;;;4.97;;
5054;SDS011;13829;48.990;8.346;2022-10-30T11:12:44;11.45;;;4.82;;
5054;SDS011;13829;48.990;8.346;2022-10-30T11:15:18;9.63;;;4.93;;
5054;SDS011;13829;48.990;8.346;2022-10-30T11:17:58;13.05;;;5.20;;
5054;SDS011;13829;48.990;8.346;2022-10-30T11:20:30;9.10;;;3.95;;
5054;SDS011;13829;48.990;8.346;2022-10-30T11:26:04;10.45;;;4.80;;
5054;SDS011;13829;48.990;8.346;2022-10-30T11:28:54;11.27;;;5.20;;
5054;SDS011;13829;48.990;8.346;2022-10-30T11:31:27;8.77;;;5.57;;
5054;SDS011;13829;48.990;8.346;2022-10-30T11:34:11;9.60;;;4.90;;
5054;SDS011;13829;48.990;8.346;2022-10-30T11:36:49;9.82;;;5.30;;
5054;SDS011;13829;48.990;8.346;2022-10-30T11:39:19;10.52;;;5.25;;
5054;SDS011;13829;48.990;8.346;2022-10-30T11:41:54;8.10;;;4.90;;
5054;SDS011;13829;48.990;8.346;2022-10-30T11:44:37;11.32;;;5.65;;
5054;SDS011;13829;48.990;8.346;2022-10-30T11:47:09;9.88;;;6.05;;
5054;SDS011;13829;48.990;8.346;2022-10-30T11:49:41;7.95;;;4.55;;
5054;SDS011;13829;48.990;8.346;2022-10-30T11:52:12;14.00;;;5.72;;
5054;SDS011;13829;48.990;8.346;2022-10-30T11:54:45;15.25;;;7.75;;
5054;SDS011;13829;48.990;8.346;2022-10-30T11:57:20;10.77;;;5.75;;
5054;SDS011;13829;48.990;8.346;2022-10-30T11:59:51;11.73;;;5.40;;
5054;SDS011;13829;48.990;8.346;2022-10-30T12:02:23;11.35;;;4.90;;
5054;SDS011;13829;48.990;8.346;2022-10-30T12:04:52;9.70;;;5.22;;
5054;SDS011;13829;48.990;8.346;2022-10-30T12:07:24;10.57;;;4.85;;
5054;SDS011;13829;48.990;8.346;2022-10-30T12:09:57;9.95;;;5.18;;
5054;SDS011;13829;48.990;8.346;2022-10-30T12:12:26;10.00;;;4.55;;
5054;SDS011;13829;48.990;8.346;2022-10-30T12:15:06;7.38;;;4.82;;
5054;SDS011;13829;48.990;8.346;2022-10-30T12:17:39;8.07;;;4.45;;
5054;SDS011;13829;48.990;8.346;2022-10-30T12:20:17;9.35;;;4.75;;
5054;SDS011;13829;48.990;8.346;2022-10-30T12:22:45;10.50;;;4.78;;
5054;SDS011;13829;48.990;8.346;2022-10-30T12:25:19;11.18;;;4.82;;
5054;SDS011;13829;48.990;8.346;2022-10-30T12:27:57;12.93;;;4.65;;
5054;SDS011;13829;48.990;8.346;2022-10-30T12:30:27;11.82;;;5.18;;
5054;SDS011;13829;48.990;8.346;2022-10-30T12:32:59;9.38;;;4.60;;
5054;SDS011;13829;48.990;8.346;2022-10-30T12:35:38;8.13;;;4.63;;
5054;SDS011;13829;48.990;8.346;2022-10-30T12:38:12;9.20;;;4.35;;
5054;SDS011;13829;48.990;8.346;2022-10-30T12:40:56;9.40;;;4.30;;
5054;SDS011;13829;48.990;8.346;2022-10-30T12:43:32;12.38;;;4.65;;
5054;SDS011;13829;48.990;8.346;2022-10-30T12:46:05;8.45;;;4.15;;
5054;SDS011;13829;48.990;8.346;2022-10-30T12:48:48;9.23;;;4.43;;
5054;SDS011;13829;48.990;8.346;2022-10-30T12:51:22;8.88;;;4.22;;
5054;SDS011;13829;48.990;8.346;2022-10-30T12:54:01;8.48;;;4.68;;
5054;SDS011;13829;48.990;8.346;2022-10-30T12:56:45;7.00;;;4.60;;
5054;SDS011;13829;48.990;8.346;2022-10-30T12:59:25;8.40;;;4.03;;
5054;SDS011;13829;48.990;8.346;2022-10-30T13:02:02;7.00;;;4.07;;
5054;SDS011;13829;48.990;8.346;2022-10-30T13:04:46;8.73;;;3.83;;
5054;SDS011;13829;48.990;8.346;2022-10-30T13:07:23;6.75;;;4.00;;
5054;SDS011;13829;48.990;8.346;2022-10-30T13:10:01;6.20;;;3.72;;
5054;SDS011;13829;48.990;8.346;2022-10-30T13:12:45;8.60;;;3.78;;
5054;SDS011;13829;48.990;8.346;2022-10-30T13:15:17;5.35;;;3.20;;
5054;SDS011;13829;48.990;8.346;2022-10-30T13:17:54;7.95;;;3.67;;
5054;SDS011;13829;48.990;8.346;2022-10-30T13:20:23;8.10;;;3.78;;
5054;SDS011;13829;48.990;8.346;2022-10-30T13:22:56;7.30;;;3.50;;
5054;SDS011;13829;48.990;8.346;2022-10-30T13:25:34;6.32;;;3.72;;
5054;SDS011;13829;48.990;8.346;2022-10-30T13:28:26;9.88;;;3.72;;
5054;SDS011;13829;48.990;8.346;2022-10-30T13:31:02;8.70;;;4.15;;
5054;SDS011;13829;48.990;8.346;2022-10-30T13:33:43;7.50;;;3.10;;
5054;SDS011;13829;48.990;8.346;2022-10-30T13:36:26;8.18;;;4.00;;
5054;SDS011;13829;48.990;8.346;2022-10-30T13:39:07;6.90;;;3.60;;
5054;SDS011;13829;48.990;8.346;2022-10-30T13:41:51;8.65;;;3.90;;
5054;SDS011;13829;48.990;8.346;2022-10-30T13:44:41;6.18;;;3.33;;
5054;SDS011;13829;48.990;8.346;2022-10-30T13:47:26;6.28;;;3.65;;
5054;SDS011;13829;48.990;8.346;2022-10-30T13:53:01;10.43;;;4.53;;
5054;SDS011;13829;48.990;8.346;2022-10-30T13:55:31;9.98;;;5.18;;
5054;SDS011;13829;48.990;8.346;2022-10-30T13:58:01;9.82;;;4.32;;
5054;SDS011;13829;48.990;8.346;2022-10-30T14:00:46;6.85;;;4.90;;
5054;SDS011;13829;48.990;8.346;2022-10-30T14:03:31;7.13;;;4.65;;
5054;SDS011;13829;48.990;8.346;2022-10-30T14:06:18;10.80;;;4.80;;
5054;SDS011;13829;48.990;8.346;2022-10-30T14:09:04;8.80;;;4.70;;
5054;SDS011;13829;48.990;8.346;2022-10-30T14:11:40;9.80;;;4.53;;
5054;SDS011;13829;48.990;8.346;2022-10-30T14:14:22;10.07;;;4.95;;
5054;SDS011;13829;48.990;8.346;2022-10-30T14:17:09;9.73;;;4.75;;
5054;SDS011;13829;48.990;8.346;2022-10-30T14:23:07;9.80;;;4.35;;
5054;SDS011;13829;48.990;8.346;2022-10-30T14:25:39;9.23;;;4.38;;
5054;SDS011;13829;48.990;8.346;2022-10-30T14:28:16;6.85;;;4.13;;
5054;SDS011;13829;48.990;8.346;2022-10-30T14:30:45;5.75;;;4.05;;
5054;SDS011;13829;48.990;8.346;2022-10-30T14:39:25;5.00;;;4.05;;
5054;SDS011;13829;48.990;8.346;2022-10-30T14:41:59;5.45;;;3.72;;
5054;SDS011;13829;48.990;8.346;2022-10-30T14:44:42;6.47;;;3.95;;
5054;SDS011;13829;48.990;8.346;2022-10-30T14:50:32;6.32;;;3.90;;
5054;SDS011;13829;48.990;8.346;2022-10-30T14:53:16;5.22;;;3.53;;
5054;SDS011;13829;48.990;8.346;2022-10-30T14:56:08;11.20;;;5.00;;
5054;SDS011;13829;48.990;8.346;2022-10-30T15:01:51;7.68;;;3.90;;
5054;SDS011;13829;48.990;8.346;2022-10-30T15:04:43;6.50;;;4.10;;
5054;SDS011;13829;48.990;8.346;2022-10-30T15:07:37;6.22;;;3.83;;
5054;SDS011;13829;48.990;8.346;2022-10-30T15:10:15;6.93;;;4.10;;
5054;SDS011;13829;48.990;8.346;2022-10-30T15:15:43;5.78;;;4.28;;
5054;SDS011;13829;48.990;8.346;2022-10-30T15:18:14;5.13;;;3.90;;
5054;SDS011;13829;48.990;8.346;2022-10-30T15:20:47;8.93;;;5.15;;
5054;SDS011;13829;48.990;8.346;2022-10-30T15:23:20;7.10;;;5.03;;
5054;SDS011;13829;48.990;8.346;2022-10-30T15:25:53;8.00;;;4.78;;
5054;SDS011;13829;48.990;8.346;2022-10-30T15:28:24;8.98;;;5.40;;
5054;SDS011;13829;48.990;8.346;2022-10-30T15:30:59;8.27;;;5.00;;
5054;SDS011;13829;48.990;8.346;2022-10-30T15:33:29;8.25;;;5.75;;
5054;SDS011;13829;48.990;8.346;2022-10-30T15:35:59;8.40;;;4.95;;
5054;SDS011;13829;48.990;8.346;2022-10-30T15:38:27;9.77;;;5.60;;
5054;SDS011;13829;48.990;8.346;2022-10-30T15:40:55;17.15;;;6.63;;
5054;SDS011;13829;48.990;8.346;2022-10-30T15:43:28;14.50;;;8.50;;
5054;SDS011;13829;48.990;8.346;2022-10-30T15:45:58;15.35;;;9.18;;
5054;SDS011;13829;48.990;8.346;2022-10-30T15:48:26;17.50;;;10.40;;
5054;SDS011;13829;48.990;8.346;2022-10-30T15:50:58;18.20;;;10.75;;